createdAt,value
2019-05-23T00:01:17.557Z,6.15
2019-05-23T00:04:04.731Z,5.90
2019-05-23T00:06:34.658Z,7.08
2019-05-23T00:09:06.543Z,6.62
2019-05-23T00:11:44.850Z,7.75
2019-05-23T00:14:30.882Z,10.88
2019-05-23T00:17:01.867Z,10.58
2019-05-23T00:19:32.678Z,7.97
2019-05-23T00:22:03.720Z,7.33
2019-05-23T00:24:33.079Z,7.90
2019-05-23T00:27:03.237Z,7.92
2019-05-23T00:29:33.314Z,9.85
2019-05-23T00:32:15.643Z,8.68
2019-05-23T00:34:45.446Z,7.67
2019-05-23T00:37:16.403Z,8.03
2019-05-23T00:39:47.383Z,8.15
2019-05-23T00:42:16.759Z,6.62
2019-05-23T00:44:45.960Z,10.30
2019-05-23T00:47:15.726Z,9.43
2019-05-23T00:49:46.499Z,9.55
2019-05-23T00:52:17.049Z,7.67
2019-05-23T00:54:47.372Z,6.28
2019-05-23T00:57:17.512Z,7.90
2019-05-23T00:59:47.211Z,8.35
2019-05-23T01:02:16.322Z,7.47
2019-05-23T01:04:46.045Z,7.85
2019-05-23T01:07:16.144Z,7.25
2019-05-23T01:09:46.395Z,7.95
2019-05-23T01:12:16.746Z,6.08
2019-05-23T01:14:45.985Z,8.90
2019-05-23T01:17:15.894Z,7.03
2019-05-23T01:19:44.915Z,7.92
2019-05-23T01:22:14.654Z,7.25
2019-05-23T01:24:46.704Z,7.17
2019-05-23T01:27:17.196Z,5.97
2019-05-23T01:29:51.111Z,7.10
2019-05-23T01:32:45.370Z,7.08
2019-05-23T01:35:17.356Z,7.97
2019-05-23T01:37:47.753Z,5.75
2019-05-23T01:40:17.499Z,7.17
2019-05-23T01:42:47.364Z,8.63
2019-05-23T01:45:17.772Z,5.75
2019-05-23T01:47:49.474Z,7.12
2019-05-23T01:50:22.524Z,8.45
2019-05-23T01:52:52.845Z,9.35
2019-05-23T01:55:22.238Z,10.18
2019-05-23T01:57:52.576Z,8.35
2019-05-23T02:00:24.714Z,6.83
2019-05-23T02:02:54.563Z,9.30
2019-05-23T02:05:42.948Z,8.98
2019-05-23T02:08:14.665Z,11.08
2019-05-23T02:10:44.246Z,7.60
2019-05-23T02:13:13.639Z,10.35
2019-05-23T02:15:44.482Z,7.97
2019-05-23T02:18:13.888Z,10.68
2019-05-23T02:20:43.652Z,6.53
2019-05-23T02:23:13.483Z,7.78
2019-05-23T02:25:42.881Z,8.03
2019-05-23T02:28:13.688Z,7.17
2019-05-23T02:30:43.261Z,8.73
2019-05-23T02:33:13.930Z,8.23
2019-05-23T02:35:43.084Z,8.38
2019-05-23T02:38:31.564Z,7.58
2019-05-23T02:41:08.810Z,8.43
2019-05-23T02:43:40.481Z,7.58
2019-05-23T02:46:19.781Z,6.85
2019-05-23T02:48:51.208Z,7.22
2019-05-23T02:51:25.916Z,8.20
2019-05-23T02:53:55.771Z,8.00
2019-05-23T02:56:25.374Z,9.00
2019-05-23T02:59:23.903Z,8.73
2019-05-23T03:03:02.771Z,8.00
2019-05-23T03:05:34.739Z,10.65
2019-05-23T03:08:05.794Z,12.95
2019-05-23T03:10:57.757Z,8.80
2019-05-23T03:13:32.349Z,9.78
2019-05-23T03:16:02.031Z,10.32
2019-05-23T03:18:34.501Z,10.03
2019-05-23T03:21:05.851Z,7.75
2019-05-23T03:23:35.477Z,8.45
2019-05-23T03:26:47.389Z,9.20
2019-05-23T03:29:16.938Z,7.90
2019-05-23T03:32:15.181Z,6.70
2019-05-23T03:34:47.867Z,7.65
2019-05-23T03:37:17.189Z,9.65
2019-05-23T03:39:46.384Z,7.33
2019-05-23T03:42:15.775Z,7.97
2019-05-23T03:44:46.883Z,7.15
2019-05-23T03:47:17.766Z,8.45
2019-05-23T03:49:49.822Z,8.30
2019-05-23T03:52:21.992Z,7.10
2019-05-23T03:54:54.382Z,8.90
2019-05-23T03:57:26.143Z,7.45
2019-05-23T03:59:56.741Z,9.40
2019-05-23T04:02:26.939Z,8.08
2019-05-23T04:04:57.436Z,8.30
2019-05-23T04:07:26.883Z,10.82
2019-05-23T04:09:56.243Z,8.63
2019-05-23T04:12:25.694Z,7.78
2019-05-23T04:14:55.325Z,8.73
2019-05-23T04:17:24.674Z,8.25
2019-05-23T04:19:53.790Z,9.45
2019-05-23T04:22:23.500Z,9.20
2019-05-23T04:24:52.523Z,10.15
2019-05-23T04:27:21.653Z,8.53
2019-05-23T04:29:51.325Z,10.15
2019-05-23T04:32:21.495Z,7.67
2019-05-23T04:34:50.674Z,12.90
2019-05-23T04:37:20.054Z,13.35
2019-05-23T04:39:49.267Z,12.98
2019-05-23T04:42:18.531Z,10.80
2019-05-23T04:44:47.639Z,9.03
2019-05-23T04:47:16.726Z,9.45
2019-05-23T04:49:46.067Z,9.55
2019-05-23T04:52:15.219Z,9.95
2019-05-23T04:54:44.432Z,10.88
2019-05-23T04:57:14.468Z,11.20
2019-05-23T04:59:43.944Z,10.72
2019-05-23T05:02:25.460Z,10.48
2019-05-23T05:04:44.247Z,11.25
2019-05-23T05:07:13.450Z,11.40
2019-05-23T05:09:42.506Z,9.53
2019-05-23T05:12:12.336Z,13.55
2019-05-23T05:14:41.622Z,8.78
2019-05-23T05:17:12.045Z,9.83
2019-05-23T05:19:41.620Z,9.85
2019-05-23T05:22:10.976Z,12.98
2019-05-23T05:24:40.425Z,12.47
2019-05-23T05:27:11.014Z,12.35
2019-05-23T05:29:40.254Z,11.38
2019-05-23T05:32:09.915Z,12.65
2019-05-23T05:34:39.405Z,11.73
2019-05-23T05:37:08.700Z,10.28
2019-05-23T05:39:38.655Z,12.88
2019-05-23T05:42:09.207Z,15.90
2019-05-23T05:44:39.058Z,11.35
2019-05-23T05:47:10.731Z,11.28
2019-05-23T05:49:42.352Z,13.78
2019-05-23T05:52:11.892Z,13.08
2019-05-23T05:54:41.171Z,10.70
2019-05-23T05:57:10.726Z,14.25
2019-05-23T05:59:39.969Z,12.00
2019-05-23T06:02:12.247Z,15.45
2019-05-23T06:04:41.865Z,12.43
2019-05-23T06:07:20.568Z,11.15
2019-05-23T06:09:50.836Z,13.32
2019-05-23T06:12:20.957Z,11.90
2019-05-23T06:14:50.087Z,11.25
2019-05-23T06:17:20.967Z,9.33
2019-05-23T06:19:50.326Z,14.98
2019-05-23T06:22:20.095Z,12.45
2019-05-23T06:24:53.743Z,12.90
2019-05-23T06:27:21.858Z,12.28
2019-05-23T06:29:51.235Z,10.32
2019-05-23T06:32:21.928Z,12.90
2019-05-23T06:34:54.710Z,13.83
2019-05-23T06:37:24.321Z,12.33
2019-05-23T06:39:53.914Z,11.20
2019-05-23T06:42:23.530Z,11.97
2019-05-23T06:44:53.475Z,13.22
2019-05-23T06:47:22.645Z,18.25
2019-05-23T06:49:51.986Z,15.23
2019-05-23T06:52:21.195Z,12.23
2019-05-23T06:54:50.285Z,9.70
2019-05-23T06:57:19.835Z,11.93
2019-05-23T06:59:49.083Z,13.20
2019-05-23T07:02:18.274Z,14.63
2019-05-23T07:04:47.931Z,14.00
2019-05-23T07:07:17.523Z,13.30
2019-05-23T07:09:47.131Z,12.25
2019-05-23T07:12:16.429Z,12.50
2019-05-23T07:14:45.686Z,14.50
2019-05-23T07:17:17.951Z,14.03
2019-05-23T07:19:47.175Z,11.65
2019-05-23T07:22:18.818Z,10.70
2019-05-23T07:24:57.300Z,13.60
2019-05-23T07:27:18.718Z,10.72
2019-05-23T07:29:47.968Z,10.38
2019-05-23T07:32:17.058Z,10.00
2019-05-23T07:34:46.138Z,8.98
2019-05-23T07:37:15.165Z,10.03
2019-05-23T07:39:44.400Z,10.40
2019-05-23T07:42:13.767Z,11.08
2019-05-23T07:44:48.181Z,11.22
2019-05-23T07:47:15.992Z,9.60
2019-05-23T07:49:45.159Z,12.18
2019-05-23T07:52:14.369Z,13.03
2019-05-23T07:54:49.390Z,12.25
2019-05-23T07:57:18.731Z,10.25
2019-05-23T07:59:48.737Z,14.70
2019-05-23T08:02:27.027Z,10.40
2019-05-23T08:04:56.389Z,11.28
2019-05-23T08:07:25.673Z,12.53
2019-05-23T08:09:54.709Z,11.78
2019-05-23T08:12:24.333Z,10.30
2019-05-23T08:14:53.520Z,10.80
2019-05-23T08:17:22.962Z,8.40
2019-05-23T08:19:52.260Z,9.23
2019-05-23T08:22:21.410Z,9.70
2019-05-23T08:24:51.459Z,9.70
2019-05-23T08:27:20.804Z,9.88
2019-05-23T08:29:50.523Z,8.03
2019-05-23T08:32:19.732Z,8.25
2019-05-23T08:34:48.803Z,7.65
2019-05-23T08:37:18.079Z,9.65
2019-05-23T08:39:48.894Z,11.25
2019-05-23T08:42:18.839Z,10.68
2019-05-23T08:44:48.539Z,7.37
2019-05-23T08:47:19.390Z,8.15
2019-05-23T08:49:48.543Z,9.63
2019-05-23T08:52:17.763Z,7.05
2019-05-23T08:54:49.052Z,7.85
2019-05-23T08:57:18.616Z,8.15
2019-05-23T08:59:47.735Z,7.60
2019-05-23T09:02:17.872Z,8.30
2019-05-23T09:05:03.258Z,6.40
2019-05-23T09:07:19.608Z,5.22
2019-05-23T09:09:49.430Z,7.67
2019-05-23T09:12:19.091Z,5.40
2019-05-23T09:14:48.362Z,8.05
2019-05-23T09:17:17.457Z,7.33
2019-05-23T09:19:46.648Z,7.58
2019-05-23T09:22:15.623Z,5.67
2019-05-23T09:24:44.860Z,5.10
2019-05-23T09:27:14.044Z,3.98
2019-05-23T09:29:43.329Z,7.53
2019-05-23T09:32:13.074Z,5.60
2019-05-23T09:34:42.496Z,4.35
2019-05-23T09:37:13.096Z,6.67
2019-05-23T09:39:44.283Z,5.10
2019-05-23T09:42:14.093Z,3.80
2019-05-23T09:44:43.275Z,4.70
2019-05-23T09:47:12.441Z,7.35
2019-05-23T09:49:41.619Z,4.80
2019-05-23T09:52:12.159Z,5.08
2019-05-23T09:54:41.636Z,3.47
2019-05-23T09:57:12.007Z,5.00
2019-05-23T09:59:41.179Z,3.17
2019-05-23T10:02:11.869Z,2.52
2019-05-23T10:04:41.149Z,2.85
2019-05-23T10:07:10.522Z,3.22
2019-05-23T10:09:39.575Z,4.53
2019-05-23T10:12:08.834Z,2.58
2019-05-23T10:14:39.522Z,4.00
2019-05-23T10:17:08.921Z,3.52
2019-05-23T10:19:38.495Z,2.85
2019-05-23T10:22:07.790Z,2.10
2019-05-23T10:24:36.783Z,2.52
2019-05-23T10:27:08.492Z,1.40
2019-05-23T10:29:37.577Z,1.72
2019-05-23T10:32:08.898Z,3.47
2019-05-23T10:34:37.990Z,3.85
2019-05-23T10:37:08.890Z,1.50
2019-05-23T10:39:38.063Z,2.75
2019-05-23T10:42:07.155Z,2.30
2019-05-23T10:44:36.265Z,3.17
2019-05-23T10:47:05.371Z,1.75
2019-05-23T10:49:34.717Z,2.60
2019-05-23T10:52:04.521Z,2.33
2019-05-23T10:54:33.732Z,2.30
2019-05-23T10:57:02.916Z,2.22
2019-05-23T10:59:32.086Z,2.30
2019-05-23T11:02:01.204Z,1.90
2019-05-23T11:04:30.319Z,3.47
2019-05-23T11:06:59.817Z,3.05
2019-05-23T11:09:37.958Z,2.08
2019-05-23T11:12:00.633Z,2.12
2019-05-23T11:14:29.665Z,2.92
2019-05-23T11:16:58.927Z,2.98
2019-05-23T11:19:28.739Z,1.50
2019-05-23T11:21:57.873Z,2.47
2019-05-23T11:24:27.165Z,6.33
2019-05-23T11:26:56.501Z,2.05
2019-05-23T11:29:27.416Z,2.20
2019-05-23T11:31:56.557Z,2.27
2019-05-23T11:34:26.116Z,2.15
2019-05-23T11:36:55.343Z,2.65
2019-05-23T11:39:25.269Z,2.15
2019-05-23T11:41:54.719Z,1.62
2019-05-23T11:44:23.811Z,2.90
2019-05-23T11:46:53.804Z,4.95
2019-05-23T11:49:23.367Z,3.00
2019-05-23T11:51:53.197Z,2.98
2019-05-23T11:54:23.719Z,4.55
2019-05-23T11:56:53.410Z,2.58
2019-05-23T11:59:22.498Z,2.30
2019-05-23T12:01:59.478Z,2.10
2019-05-23T12:04:33.038Z,2.95
2019-05-23T12:07:08.728Z,2.90
2019-05-23T12:09:38.066Z,2.67
2019-05-23T12:12:07.466Z,2.27
2019-05-23T12:14:37.743Z,3.30
2019-05-23T12:17:07.105Z,2.05
2019-05-23T12:19:36.860Z,2.77
2019-05-23T12:22:06.294Z,2.92
2019-05-23T12:24:36.021Z,1.92
2019-05-23T12:27:05.600Z,4.45
2019-05-23T12:29:35.397Z,2.47
2019-05-23T12:32:07.055Z,1.77
2019-05-23T12:34:36.231Z,2.50
2019-05-23T12:37:21.097Z,2.02
2019-05-23T12:39:36.688Z,3.83
2019-05-23T12:42:05.920Z,5.03
2019-05-23T12:44:35.096Z,3.52
2019-05-23T12:47:05.811Z,4.67
2019-05-23T12:49:46.181Z,3.55
2019-05-23T12:52:15.765Z,4.12
2019-05-23T12:54:45.532Z,5.30
2019-05-23T12:57:14.632Z,3.08
2019-05-23T12:59:44.028Z,5.35
2019-05-23T13:02:18.792Z,3.50
2019-05-23T13:04:48.260Z,4.87
2019-05-23T13:07:34.510Z,3.77
2019-05-23T13:09:48.063Z,5.25
2019-05-23T13:12:17.271Z,5.37
2019-05-23T13:14:46.499Z,3.02
2019-05-23T13:17:15.619Z,4.95
2019-05-23T13:19:44.668Z,4.62
2019-05-23T13:22:14.392Z,3.90
2019-05-23T13:24:52.607Z,5.25
2019-05-23T13:27:14.603Z,4.08
2019-05-23T13:29:43.935Z,6.28
2019-05-23T13:32:13.187Z,7.00
2019-05-23T13:34:42.600Z,4.87
2019-05-23T13:37:16.945Z,2.85
2019-05-23T13:39:46.224Z,6.17
2019-05-23T13:42:15.301Z,4.37
2019-05-23T13:44:44.663Z,5.55
2019-05-23T13:47:13.991Z,7.80
2019-05-23T13:49:43.276Z,9.28
2019-05-23T13:52:12.487Z,11.63
2019-05-23T13:54:41.808Z,8.88
2019-05-23T13:57:12.961Z,5.45
2019-05-23T13:59:42.455Z,4.87
2019-05-23T14:02:11.917Z,4.72
2019-05-23T14:04:41.729Z,4.87
2019-05-23T14:07:12.105Z,3.98
2019-05-23T14:09:41.636Z,4.53
2019-05-23T14:12:26.251Z,4.03
2019-05-23T14:14:41.888Z,6.40
2019-05-23T14:17:34.624Z,6.75
2019-05-23T14:20:04.233Z,5.75
2019-05-23T14:22:36.323Z,3.95
2019-05-23T14:25:06.378Z,6.53
2019-05-23T14:27:53.242Z,5.58
2019-05-23T14:30:47.668Z,4.42
2019-05-23T14:33:34.451Z,4.67
2019-05-23T14:36:06.048Z,7.33
2019-05-23T14:38:36.265Z,6.05
2019-05-23T14:41:06.402Z,5.75
2019-05-23T14:43:36.211Z,4.85
2019-05-23T14:46:08.760Z,4.47
2019-05-23T14:48:48.310Z,9.40
2019-05-23T14:51:37.252Z,5.47
2019-05-23T14:54:11.446Z,5.87
2019-05-23T14:56:40.895Z,9.08
2019-05-23T14:59:10.097Z,5.28
2019-05-23T15:01:39.300Z,4.78
2019-05-23T15:04:08.798Z,6.70
2019-05-23T15:06:38.337Z,4.65
2019-05-23T15:09:09.023Z,5.15
2019-05-23T15:11:38.954Z,4.55
2019-05-23T15:14:08.312Z,5.33
2019-05-23T15:16:37.690Z,5.25
2019-05-23T15:19:07.718Z,5.95
2019-05-23T15:21:36.899Z,5.28
2019-05-23T15:24:06.515Z,4.33
2019-05-23T15:26:35.850Z,5.70
2019-05-23T15:29:05.335Z,6.37
2019-05-23T15:31:34.651Z,5.53
2019-05-23T15:34:04.201Z,6.50
2019-05-23T15:36:36.536Z,5.92
2019-05-23T15:39:10.196Z,5.47
2019-05-23T15:41:41.107Z,7.75
2019-05-23T15:44:23.864Z,3.58
2019-05-23T15:46:41.575Z,6.85
2019-05-23T15:49:12.341Z,7.97
2019-05-23T15:51:53.746Z,4.72
2019-05-23T15:54:49.648Z,4.40
2019-05-23T15:57:23.124Z,4.03
2019-05-23T15:59:57.375Z,4.53
2019-05-23T16:02:38.380Z,3.90
2019-05-23T16:05:09.826Z,5.03
2019-05-23T16:07:38.991Z,5.95
2019-05-23T16:10:08.982Z,5.20
2019-05-23T16:12:38.079Z,3.85
2019-05-23T16:15:08.135Z,5.55
2019-05-23T16:17:37.160Z,4.65
2019-05-23T16:20:06.686Z,3.50
2019-05-23T16:22:35.884Z,5.12
2019-05-23T16:25:05.652Z,3.60
2019-05-23T16:27:35.047Z,3.92
2019-05-23T16:30:04.847Z,5.20
2019-05-23T16:32:33.892Z,6.67
2019-05-23T16:35:03.007Z,4.30
2019-05-23T16:37:32.218Z,4.25
2019-05-23T16:40:01.436Z,4.92
2019-05-23T16:42:30.801Z,3.33
2019-05-23T16:44:59.983Z,4.30
2019-05-23T16:47:29.600Z,4.45
2019-05-23T16:49:59.855Z,4.05
2019-05-23T16:52:29.059Z,5.03
2019-05-23T16:54:59.182Z,5.67
2019-05-23T16:57:43.128Z,3.42
2019-05-23T17:00:30.521Z,5.55
2019-05-23T17:03:08.635Z,4.50
2019-05-23T17:06:03.164Z,4.97
2019-05-23T17:08:49.684Z,5.33
2019-05-23T17:11:29.539Z,5.00
2019-05-23T17:14:19.447Z,3.77
2019-05-23T17:17:10.805Z,2.92
2019-05-23T17:19:45.643Z,3.20
2019-05-23T17:22:37.098Z,4.80
2019-05-23T17:25:24.422Z,4.87
2019-05-23T17:28:00.419Z,3.20
2019-05-23T17:30:35.332Z,5.60
2019-05-23T17:33:05.171Z,3.35
2019-05-23T17:35:34.853Z,3.52
2019-05-23T17:38:04.132Z,4.10
2019-05-23T17:40:33.472Z,4.87
2019-05-23T17:43:04.804Z,3.02
2019-05-23T17:45:34.102Z,2.87
2019-05-23T17:48:03.966Z,5.72
2019-05-23T17:50:34.930Z,4.20
2019-05-23T17:53:04.762Z,4.12
2019-05-23T17:55:34.445Z,4.17
2019-05-23T17:58:03.839Z,4.25
2019-05-23T18:00:39.284Z,3.27
2019-05-23T18:03:08.753Z,3.90
2019-05-23T18:05:37.990Z,2.37
2019-05-23T18:08:09.225Z,3.25
2019-05-23T18:10:44.612Z,2.40
2019-05-23T18:13:10.142Z,3.72
2019-05-23T18:15:40.009Z,2.65
2019-05-23T18:18:09.373Z,2.75
2019-05-23T18:20:39.570Z,4.35
2019-05-23T18:23:09.153Z,1.85
2019-05-23T18:25:38.474Z,3.92
2019-05-23T18:28:09.334Z,2.52
2019-05-23T18:30:48.466Z,3.65
2019-05-23T18:33:18.974Z,3.35
2019-05-23T18:35:49.154Z,3.02
2019-05-23T18:38:19.580Z,3.47
2019-05-23T18:41:02.335Z,3.47
2019-05-23T18:43:20.839Z,7.50
2019-05-23T18:45:51.990Z,2.22
2019-05-23T18:48:21.360Z,4.00
2019-05-23T18:50:51.217Z,3.70
2019-05-23T18:53:20.974Z,2.90
2019-05-23T18:55:50.711Z,3.47
2019-05-23T18:58:20.568Z,2.65
2019-05-23T19:01:11.659Z,2.50
2019-05-23T19:03:41.079Z,3.90
2019-05-23T19:06:10.446Z,3.42
2019-05-23T19:08:39.617Z,3.75
2019-05-23T19:11:20.089Z,11.30
2019-05-23T19:13:39.743Z,4.37
2019-05-23T19:16:09.214Z,3.20
2019-05-23T19:18:38.728Z,3.50
2019-05-23T19:21:08.284Z,4.00
2019-05-23T19:23:39.750Z,4.62
2019-05-23T19:26:10.006Z,3.15
2019-05-23T19:28:39.303Z,3.65
2019-05-23T19:31:09.118Z,4.15
2019-05-23T19:33:38.295Z,2.87
2019-05-23T19:36:09.367Z,3.37
2019-05-23T19:38:39.972Z,4.33
2019-05-23T19:41:10.775Z,4.53
2019-05-23T19:43:40.674Z,2.58
2019-05-23T19:46:09.771Z,3.50
2019-05-23T19:48:41.141Z,2.30
2019-05-23T19:51:11.934Z,3.50
2019-05-23T19:53:41.296Z,4.28
2019-05-23T19:56:10.576Z,4.28
2019-05-23T19:58:39.827Z,5.10
2019-05-23T20:01:09.056Z,5.42
2019-05-23T20:03:38.521Z,4.62
2019-05-23T20:06:09.545Z,3.83
2019-05-23T20:08:39.708Z,5.40
2019-05-23T20:11:08.827Z,6.25
2019-05-23T20:13:38.280Z,4.85
2019-05-23T20:16:07.840Z,6.08
2019-05-23T20:18:37.581Z,4.85
2019-05-23T20:21:07.409Z,6.03
2019-05-23T20:23:36.512Z,5.00
2019-05-23T20:26:08.302Z,6.20
2019-05-23T20:28:40.082Z,4.80
2019-05-23T20:31:11.061Z,5.95
2019-05-23T20:33:40.563Z,8.35
2019-05-23T20:36:12.986Z,14.13
2019-05-23T20:38:42.838Z,18.15
2019-05-23T20:41:12.835Z,16.12
2019-05-23T20:43:41.984Z,14.23
2019-05-23T20:46:11.715Z,11.95
2019-05-23T20:48:40.995Z,9.35
2019-05-23T20:51:10.530Z,5.67
2019-05-23T20:53:39.681Z,4.53
2019-05-23T20:56:08.879Z,5.50
2019-05-23T20:58:38.075Z,5.37
2019-05-23T21:01:17.631Z,4.97
2019-05-23T21:03:47.885Z,6.10
2019-05-23T21:06:17.258Z,6.45
2019-05-23T21:08:46.642Z,4.97
2019-05-23T21:11:15.811Z,7.60
2019-05-23T21:13:44.895Z,4.47
2019-05-23T21:16:14.161Z,3.95
2019-05-23T21:18:43.165Z,4.00
2019-05-23T21:21:12.371Z,5.97
2019-05-23T21:23:41.465Z,3.92
2019-05-23T21:26:10.564Z,3.85
2019-05-23T21:28:39.631Z,7.95
2019-05-23T21:31:15.546Z,5.05
2019-05-23T21:33:44.905Z,4.35
2019-05-23T21:36:14.027Z,4.30
2019-05-23T21:38:43.279Z,5.22
2019-05-23T21:41:12.392Z,4.62
2019-05-23T21:43:42.112Z,4.62
2019-05-23T21:46:11.389Z,5.20
2019-05-23T21:48:40.642Z,4.78
2019-05-23T21:51:09.735Z,5.15
2019-05-23T21:53:39.101Z,4.12
2019-05-23T21:56:08.327Z,4.22
2019-05-23T21:58:37.473Z,5.00
2019-05-23T22:01:34.364Z,5.95
2019-05-23T22:04:10.329Z,4.25
2019-05-23T22:06:40.745Z,5.12
2019-05-23T22:09:11.353Z,4.95
2019-05-23T22:11:40.620Z,5.15
2019-05-23T22:14:09.827Z,5.72
2019-05-23T22:16:39.136Z,4.47
2019-05-23T22:19:10.570Z,3.83
2019-05-23T22:21:39.848Z,5.60
2019-05-23T22:24:09.595Z,5.67
2019-05-23T22:26:38.806Z,4.40
2019-05-23T22:29:08.699Z,4.20
2019-05-23T22:31:38.071Z,3.95
2019-05-23T22:34:15.935Z,4.35
2019-05-23T22:36:44.922Z,5.75
2019-05-23T22:39:13.984Z,5.35
2019-05-23T22:41:43.226Z,5.17
2019-05-23T22:44:12.605Z,3.98
2019-05-23T22:46:42.328Z,4.25
2019-05-23T22:49:11.681Z,8.60
2019-05-23T22:51:40.796Z,4.00
2019-05-23T22:54:10.093Z,4.60
2019-05-23T22:56:51.354Z,4.78
2019-05-23T22:59:20.542Z,5.97
2019-05-23T23:01:49.842Z,4.12
2019-05-23T23:04:19.078Z,6.53
2019-05-23T23:06:48.143Z,4.42
2019-05-23T23:09:17.395Z,5.83
2019-05-23T23:11:46.572Z,5.15
2019-05-23T23:14:15.723Z,4.78
2019-05-23T23:16:44.956Z,4.00
2019-05-23T23:19:14.156Z,4.70
2019-05-23T23:21:43.250Z,6.97
2019-05-23T23:24:12.240Z,5.40
2019-05-23T23:26:41.315Z,4.78
2019-05-23T23:29:10.455Z,4.47
2019-05-23T23:31:39.635Z,4.70
2019-05-23T23:34:08.630Z,5.95
2019-05-23T23:36:37.717Z,4.95
2019-05-23T23:39:07.487Z,4.70
2019-05-23T23:41:36.691Z,5.35
2019-05-23T23:44:08.618Z,9.35
2019-05-23T23:46:55.744Z,4.35
2019-05-23T23:49:42.868Z,4.30
2019-05-23T23:52:30.045Z,6.10
2019-05-23T23:55:17.468Z,6.55
2019-05-23T23:58:00.995Z,6.75
